Time;durP1;ratioP1;P1;durP2;ratioP2;P2;SDS_P1;SDS_P2;PMS_P1;PMS_P2;Temp;Humidity;BMP_temperature;BMP_pressure;BME280_temperature;BME280_humidity;BME280_pressure;Samples;Min_cycle;Max_cycle;Signal;HPM_P1;HPM_P2
2021/03/08 00:01:14;;;;;;;;;;;;;;;0.64;100.00;101142.66;5113586;28;19930;-64
2021/03/08 00:03:39;;;;;;;;;;;;;;;0.62;100.00;101136.47;5113540;28;19970;-64
2021/03/08 00:06:05;;;;;;;;;;;;;;;0.59;100.00;101141.03;5113465;28;19920;-64
2021/03/08 00:08:31;;;;;;;;;;;;;;;0.57;100.00;101158.94;5113077;28;20381;-65
2021/03/08 00:10:57;;;;;;;;;;;;;;;0.55;100.00;101155.41;5113429;28;19927;-64
2021/03/08 00:13:24;;;;;;;;;;;;;;;0.55;100.00;101158.09;5113503;28;19923;-65
2021/03/08 00:15:49;;;;;;;;;;;;;;;0.55;100.00;101160.75;5113339;28;19973;-65
2021/03/08 00:18:15;;;;;;;;;;;;;;;0.53;100.00;101167.97;5113213;28;20389;-64
2021/03/08 00:20:41;;;;;;;;;;;;;;;0.54;100.00;101164.38;5113302;28;19920;-65
2021/03/08 00:23:07;;;;;;;;;;;;;;;0.53;100.00;101163.47;5113264;28;19927;-65
2021/03/08 00:25:33;;;;;;;;;;;;;;;0.54;100.00;101173.25;5112878;28;19949;-64
2021/03/08 00:28:00;;;;;;;;;;;;;;;0.55;100.00;101171.44;5112876;28;20007;-64
2021/03/08 00:30:27;;;;;;;;;;;;;;;0.53;100.00;101174.16;5113009;28;19923;-65
2021/03/08 00:32:52;;;;;;;;;;;;;;;0.53;100.00;101173.31;5112932;28;19966;-65
2021/03/08 00:35:18;;;;;;;;;;;;;;;0.49;100.00;101178.75;5112958;28;19927;-64
2021/03/08 00:37:45;;;;;;;;;;;;;;;0.45;100.00;101163.72;5112608;28;19920;-65
2021/03/08 00:40:11;;;;;;;;;;;;;;;0.40;100.00;101168.38;5112736;28;19927;-65
2021/03/08 00:42:38;;;;;;;;;;;;;;;0.35;100.00;101169.41;5112702;28;19920;-65
2021/03/08 00:45:05;;;;;;;;;;;;;;;0.31;100.00;101171.31;5112955;28;19965;-65
2021/03/08 00:47:32;;;;;;;;;;;;;;;0.27;100.00;101169.69;5112241;28;19920;-65
2021/03/08 00:50:00;;;;;;;;;;;;;;;0.23;100.00;101171.56;5111374;28;19924;-64
2021/03/08 00:52:27;;;;;;;;;;;;;;;0.19;100.00;101174.34;5110670;28;21262;-63
2021/03/08 00:54:53;;;;;;;;;;;;;;;0.14;100.00;101180.72;5110591;28;19924;-64
2021/03/08 00:57:19;;;;;;;;;;;;;;;0.12;100.00;101179.00;5094057;28;20270;-65
2021/03/08 00:59:49;;;;;;;;;;;;;;;0.09;100.00;101179.97;5111093;28;19930;-65
2021/03/08 01:02:15;;;;;;;;;;;;;;;0.07;100.00;101168.50;5112697;28;19931;-66
2021/03/08 01:04:43;;;;;;;;;;;;;;;0.04;100.00;101176.59;5111065;28;20377;-65
2021/03/08 01:07:11;;;;;;;;;;;;;;;0.01;100.00;101166.00;5110634;28;19924;-66
2021/03/08 01:09:37;;;;;;;;;;;;;;;0.01;100.00;101171.31;5112553;28;19966;-66
2021/03/08 01:12:03;;;;;;;;;;;;;;;-0.01;100.00;101170.53;5112408;28;19927;-65
2021/03/08 01:14:34;;;;;;;;;;;;;;;-0.03;100.00;101177.69;5105583;28;19930;-66
2021/03/08 01:17:00;;;;;;;;;;;;;;;-0.04;100.00;101175.94;5105777;28;19924;-66
2021/03/08 01:19:26;;;;;;;;;;;;;;;-0.10;100.00;101173.47;5112042;28;20450;-65
2021/03/08 01:21:53;;;;;;;;;;;;;;;-0.17;100.00;101178.09;5111986;28;19924;-65
2021/03/08 01:24:19;;;;;;;;;;;;;;;-0.28;100.00;101173.09;5110911;28;19959;-66
2021/03/08 01:26:44;;;;;;;;;;;;;;;-0.37;100.00;101184.88;5111626;28;19946;-65
2021/03/08 01:29:11;;;;;;;;;;;;;;;-0.49;100.00;101179.00;5111937;28;19928;-65
2021/03/08 01:31:37;;;;;;;;;;;;;;;-0.65;100.00;101179.44;5111852;28;20368;-65
2021/03/08 01:34:02;;;;;;;;;;;;;;;-0.78;100.00;101183.38;5111983;28;19930;-66
2021/03/08 01:36:28;;;;;;;;;;;;;;;-0.91;100.00;101186.38;5111651;28;19932;-66
2021/03/08 01:38:55;;;;;;;;;;;;;;;-1.06;100.00;101182.28;5111733;28;19930;-65
2021/03/08 01:41:21;;;;;;;;;;;;;;;-1.17;100.00;101172.84;5112063;28;19966;-65
2021/03/08 01:43:46;;;;;;;;;;;;;;;-1.31;100.00;101181.16;5110365;28;19927;-65
2021/03/08 01:46:12;;;;;;;;;;;;;;;-1.45;100.00;101181.50;5111438;28;19928;-66
2021/03/08 01:48:38;;;;;;;;;;;;;;;-1.58;100.00;101187.09;5111870;28;19959;-66
2021/03/08 01:51:05;;;;;;;;;;;;;;;-1.66;100.00;101186.41;5111575;28;20381;-66
2021/03/08 01:53:31;;;;;;;;;;;;;;;-1.71;100.00;101183.84;5111695;28;19946;-66
2021/03/08 01:55:57;;;;;;;;;;;;;;;-1.79;100.00;101192.91;5111469;28;19961;-66
2021/03/08 01:58:24;;;;;;;;;;;;;;;-1.89;100.00;101192.25;5111325;28;20005;-65
2021/03/08 02:00:50;;;;;;;;;;;;;;;-1.99;100.00;101188.94;5111605;28;20020;-65
2021/03/08 02:03:16;;;;;;;;;;;;;;;-2.09;100.00;101198.00;5111090;28;20385;-66
2021/03/08 02:05:43;;;;;;;;;;;;;;;-2.16;100.00;101201.69;5110105;28;20018;-66
2021/03/08 02:08:10;;;;;;;;;;;;;;;-2.26;100.00;101196.59;5115270;28;19976;-65
2021/03/08 02:10:37;;;;;;;;;;;;;;;-2.34;100.00;101206.47;5115806;28;20368;-65
2021/03/08 02:13:14;;;;;;;;;;;;;;;-2.43;100.00;101202.22;5115387;28;20006;-65
2021/03/08 02:15:46;;;;;;;;;;;;;;;-2.46;100.00;101198.75;5115503;28;19967;-65
2021/03/08 02:18:18;;;;;;;;;;;;;;;-2.50;100.00;101197.94;5115584;28;20023;-65
2021/03/08 02:20:51;;;;;;;;;;;;;;;-2.54;100.00;101202.44;5115373;28;20172;-65
2021/03/08 02:23:35;;;;;;;;;;;;;;;-2.56;100.00;101198.94;5115801;28;20026;-66
2021/03/08 02:26:25;;;;;;;;;;;;;;;-2.61;100.00;101203.44;5115350;28;19951;-65
2021/03/08 02:29:18;;;;;;;;;;;;;;;-2.61;100.00;101205.25;5115355;28;19947;-65
2021/03/08 02:31:46;;;;;;;;;;;;;;;-2.65;100.00;101198.22;5115363;28;19978;-66
2021/03/08 02:34:18;;;;;;;;;;;;;;;-2.73;100.00;101201.91;5115525;28;19932;-65
2021/03/08 02:36:45;;;;;;;;;;;;;;;-2.77;100.00;101210.84;5115052;28;19967;-65
2021/03/08 02:39:13;;;;;;;;;;;;;;;-2.78;100.00;101209.09;5115296;28;19953;-65
2021/03/08 02:41:40;;;;;;;;;;;;;;;-2.83;100.00;101212.72;5113983;28;20473;-65
2021/03/08 02:44:07;;;;;;;;;;;;;;;-2.89;100.00;101217.25;5115187;28;19970;-66
2021/03/08 02:46:35;;;;;;;;;;;;;;;-2.93;100.00;101204.06;5114704;28;20022;-66
2021/03/08 02:49:03;;;;;;;;;;;;;;;-2.95;100.00;101221.78;5114980;28;20022;-66
2021/03/08 02:51:30;;;;;;;;;;;;;;;-3.01;100.00;101222.78;5114792;28;19978;-66
2021/03/08 02:53:57;;;;;;;;;;;;;;;-3.06;100.00;101228.19;5113767;28;19970;-66
2021/03/08 02:56:26;;;;;;;;;;;;;;;-3.13;100.00;101225.63;5114510;28;20562;-65
2021/03/08 02:58:54;;;;;;;;;;;;;;;-3.22;100.00;101222.25;5114582;28;20333;-66
2021/03/08 03:01:20;;;;;;;;;;;;;;;-3.32;100.00;101231.25;5114780;28;20022;-65
2021/03/08 03:03:47;;;;;;;;;;;;;;;-3.37;100.00;101235.75;5114812;28;19935;-65
2021/03/08 03:06:15;;;;;;;;;;;;;;;-3.45;100.00;101238.50;5114012;28;20312;-66
2021/03/08 03:08:42;;;;;;;;;;;;;;;-3.47;100.00;101231.50;5114338;28;19963;-66
2021/03/08 03:11:08;;;;;;;;;;;;;;;-3.49;100.00;101233.28;5114636;28;19959;-65
2021/03/08 03:13:35;;;;;;;;;;;;;;;-3.53;100.00;101246.59;5114502;28;19924;-65
2021/03/08 03:16:01;;;;;;;;;;;;;;;-3.61;100.00;101243.16;5114319;28;19930;-65
2021/03/08 03:18:28;;;;;;;;;;;;;;;-3.68;100.00;101248.59;5113189;28;20010;-65
2021/03/08 03:20:55;;;;;;;;;;;;;;;-3.75;100.00;101246.03;5114386;28;19973;-65
2021/03/08 03:23:22;;;;;;;;;;;;;;;-3.80;100.00;101247.84;5114433;28;20357;-66
2021/03/08 03:25:48;;;;;;;;;;;;;;;-3.85;100.00;101249.69;5113786;28;19951;-66
2021/03/08 03:28:14;;;;;;;;;;;;;;;-3.92;100.00;101256.84;5113024;28;19928;-66
2021/03/08 03:30:40;;;;;;;;;;;;;;;-3.97;100.00;101253.38;5114181;28;19931;-66
2021/03/08 03:33:07;;;;;;;;;;;;;;;-3.99;100.00;101260.50;5114236;28;20015;-65
2021/03/08 03:35:33;;;;;;;;;;;;;;;-4.05;100.00;101256.16;5113939;28;19955;-66
2021/03/08 03:37:59;;;;;;;;;;;;;;;-4.07;100.00;101260.56;5114143;28;19959;-66
2021/03/08 03:40:26;;;;;;;;;;;;;;;-4.13;100.00;101263.31;5113900;28;20030;-66
2021/03/08 03:42:54;;;;;;;;;;;;;;;-4.19;100.00;101266.03;5113492;28;20011;-65
2021/03/08 03:45:20;;;;;;;;;;;;;;;-4.23;100.00;101266.97;5113860;28;19932;-65
2021/03/08 03:47:46;;;;;;;;;;;;;;;-4.27;100.00;101262.59;5113498;28;20010;-65
2021/03/08 03:50:13;;;;;;;;;;;;;;;-4.32;100.00;101270.59;5113860;28;20044;-66
2021/03/08 03:52:39;;;;;;;;;;;;;;;-4.36;100.00;101274.16;5113745;28;19963;-65
2021/03/08 03:55:07;;;;;;;;;;;;;;;-4.36;100.00;101268.88;5113259;28;19924;-65
2021/03/08 03:57:36;;;;;;;;;;;;;;;-4.39;100.00;101274.22;5113374;28;19923;-66
2021/03/08 04:00:03;;;;;;;;;;;;;;;-4.42;100.00;101279.56;5113407;28;20027;-65
2021/03/08 04:02:31;;;;;;;;;;;;;;;-4.50;100.00;101286.69;5113661;28;19924;-65
2021/03/08 04:04:58;;;;;;;;;;;;;;;-4.57;100.00;101289.41;5113388;28;20269;-65
2021/03/08 04:07:24;;;;;;;;;;;;;;;-4.64;100.00;101292.97;5111778;28;19963;-65
2021/03/08 04:09:51;;;;;;;;;;;;;;;-4.64;100.00;101285.03;5113604;28;19931;-66
2021/03/08 04:12:18;;;;;;;;;;;;;;;-4.60;100.00;101285.91;5113830;28;20018;-66
2021/03/08 04:14:46;;;;;;;;;;;;;;;-4.58;100.00;101285.00;5113177;28;20027;-66
2021/03/08 04:17:12;;;;;;;;;;;;;;;-4.59;100.00;101293.81;5111582;28;19928;-66
2021/03/08 04:19:39;;;;;;;;;;;;;;;-4.63;100.00;101302.69;5112849;28;19971;-65
2021/03/08 04:22:07;;;;;;;;;;;;;;;-4.63;100.00;101302.69;5113289;28;19928;-66
2021/03/08 04:24:35;;;;;;;;;;;;;;;-4.66;100.00;101301.84;5112939;28;20014;-65
2021/03/08 04:27:05;;;;;;;;;;;;;;;-4.66;100.00;101309.78;5112672;28;19924;-65
2021/03/08 04:29:31;;;;;;;;;;;;;;;-4.71;100.00;101312.50;5112973;28;19924;-65
2021/03/08 04:31:59;;;;;;;;;;;;;;;-4.74;100.00;101307.22;5112939;28;19986;-66
2021/03/08 04:34:25;;;;;;;;;;;;;;;-4.78;100.00;101318.75;5112754;28;19959;-66
2021/03/08 04:36:51;;;;;;;;;;;;;;;-4.87;100.00;101314.38;5112315;28;19937;-64
2021/03/08 04:39:16;;;;;;;;;;;;;;;-4.87;100.00;101315.25;5112837;28;19947;-64
2021/03/08 04:41:43;;;;;;;;;;;;;;;-4.92;100.00;101316.19;5112518;28;20351;-64
2021/03/08 04:44:09;;;;;;;;;;;;;;;-4.95;100.00;101316.22;5112692;28;20000;-64
2021/03/08 04:46:36;;;;;;;;;;;;;;;-4.96;100.00;101317.09;5112129;28;20415;-64
2021/03/08 04:49:04;;;;;;;;;;;;;;;-4.95;100.00;101324.16;5112721;28;20014;-64
2021/03/08 04:51:30;;;;;;;;;;;;;;;-5.01;100.00;101327.75;5112681;28;20485;-64
2021/03/08 04:53:56;;;;;;;;;;;;;;;-5.07;100.00;101325.13;5112728;28;19951;-64
2021/03/08 04:56:23;;;;;;;;;;;;;;;-5.18;100.00;101327.84;5111834;28;19924;-64
2021/03/08 04:58:49;;;;;;;;;;;;;;;-5.25;100.00;101319.06;5112319;28;19924;-64
2021/03/08 05:01:15;;;;;;;;;;;;;;;-5.27;100.00;101331.44;5112616;28;20412;-64
2021/03/08 05:03:42;;;;;;;;;;;;;;;-5.32;100.00;101327.94;5112222;28;20385;-64
2021/03/08 05:06:10;;;;;;;;;;;;;;;-5.37;100.00;101335.03;5111873;28;19924;-64
2021/03/08 05:08:38;;;;;;;;;;;;;;;-5.43;100.00;101332.41;5112282;28;19967;-64
2021/03/08 05:11:04;;;;;;;;;;;;;;;-5.50;100.00;101334.22;5112434;28;19972;-64
2021/03/08 05:13:32;;;;;;;;;;;;;;;-5.55;100.00;101342.16;5111734;28;19967;-64
2021/03/08 05:16:00;;;;;;;;;;;;;;;-5.58;100.00;101341.31;5111889;28;19989;-64
2021/03/08 05:18:26;;;;;;;;;;;;;;;-5.63;100.00;101343.09;5112158;28;19966;-64
2021/03/08 05:20:52;;;;;;;;;;;;;;;-5.66;100.00;101349.28;5112095;28;20015;-64
2021/03/08 05:23:19;;;;;;;;;;;;;;;-5.70;100.00;101350.19;5112003;28;19963;-64
2021/03/08 05:25:45;;;;;;;;;;;;;;;-5.76;100.00;101347.53;5111384;28;19963;-64
2021/03/08 05:28:12;;;;;;;;;;;;;;;-5.81;100.00;101355.50;5111921;28;19924;-64
2021/03/08 05:30:38;;;;;;;;;;;;;;;-5.81;100.00;101366.09;5111558;28;20015;-64
2021/03/08 05:33:06;;;;;;;;;;;;;;;-5.86;100.00;101365.22;5111732;28;20011;-65
2021/03/08 05:35:32;;;;;;;;;;;;;;;-5.75;100.00;101365.19;5110158;28;19951;-64
2021/03/08 05:37:59;;;;;;;;;;;;;;;-5.75;100.00;101378.41;5105702;28;20321;-63
2021/03/08 05:40:28;;;;;;;;;;;;;;;-5.77;100.00;101373.13;5110977;28;19931;-65
2021/03/08 05:43:01;;;;;;;;;;;;;;;-5.72;100.00;101378.38;5110824;28;19924;-65
2021/03/08 05:45:27;;;;;;;;;;;;;;;-5.69;100.00;101372.22;5093984;28;20011;-64
2021/03/08 05:48:00;;;;;;;;;;;;;;;-5.65;100.00;101385.44;5090896;28;19935;-64
2021/03/08 05:50:34;;;;;;;;;;;;;;;-5.63;100.00;101375.72;5111263;28;19924;-64
2021/03/08 05:53:28;;;;;;;;;;;;;;;-5.49;100.00;101393.28;5098300;28;20367;-64
2021/03/08 05:56:04;;;;;;;;;;;;;;;-5.23;100.00;101390.53;5042154;28;19928;-64
2021/03/08 05:58:39;;;;;;;;;;;;;;;-5.01;100.00;101390.41;5093905;28;20071;-64
2021/03/08 06:01:14;;;;;;;;;;;;;;;-4.67;100.00;101399.00;5109133;28;19981;-64
2021/03/08 06:03:51;;;;;;;;;;;;;;;-4.19;100.00;101395.97;5090888;28;20410;-64
2021/03/08 06:06:44;;;;;;;;;;;;;;;-3.71;100.00;101400.78;5094202;28;20362;-64
2021/03/08 06:09:19;;;;;;;;;;;;;;;-3.03;100.00;101408.78;5107546;28;19923;-65
2021/03/08 06:11:48;;;;;;;;;;;;;;;-2.53;100.00;101406.25;5103872;28;19924;-65
2021/03/08 06:14:16;;;;;;;;;;;;;;;-2.01;100.00;101400.94;5091015;28;19967;-65
2021/03/08 06:16:42;;;;;;;;;;;;;;;-1.70;100.00;101411.00;5096679;28;19965;-65
2021/03/08 06:19:08;;;;;;;;;;;;;;;-1.20;100.00;101414.44;5111480;28;19924;-65
2021/03/08 06:21:35;;;;;;;;;;;;;;;-0.75;100.00;101417.91;5107013;28;19932;-65
2021/03/08 06:24:01;;;;;;;;;;;;;;;-0.43;100.00;101405.59;5109730;28;19959;-66
2021/03/08 06:26:27;;;;;;;;;;;;;;;0.06;100.00;101414.16;5101683;28;19952;-66
2021/03/08 06:28:54;;;;;;;;;;;;;;;0.45;100.00;101416.66;5106104;28;19924;-66
2021/03/08 06:31:19;;;;;;;;;;;;;;;0.92;100.00;101424.22;5109896;28;20442;-66
2021/03/08 06:33:45;;;;;;;;;;;;;;;1.25;100.00;101426.78;5104933;28;19928;-66
2021/03/08 06:36:11;;;;;;;;;;;;;;;1.67;100.00;101437.03;5101007;28;20146;-67
2021/03/08 06:38:38;;;;;;;;;;;;;;;2.13;100.00;101426.59;5098662;28;20155;-66
2021/03/08 06:41:06;;;;;;;;;;;;;;;2.41;100.00;101433.66;5089341;28;19959;-67
2021/03/08 06:43:32;;;;;;;;;;;;;;;2.61;100.00;101439.16;5090547;28;19977;-66
2021/03/08 06:45:59;;;;;;;;;;;;;;;2.54;100.00;101439.44;5095299;28;19955;-67
2021/03/08 06:48:24;;;;;;;;;;;;;;;2.64;100.00;101435.50;5090830;28;19963;-66
2021/03/08 06:51:05;;;;;;;;;;;;;;;2.76;100.00;101444.88;5094395;28;20267;-67
2021/03/08 06:53:31;;;;;;;;;;;;;;;2.99;100.00;101442.22;5105387;28;20381;-66
2021/03/08 06:56:10;;;;;;;;;;;;;;;3.31;100.00;101448.16;5094087;28;19928;-66
2021/03/08 06:58:36;;;;;;;;;;;;;;;3.66;100.00;101448.53;5096424;28;20035;-66
2021/03/08 07:01:02;;;;;;;;;;;;;;;3.97;100.00;101455.31;5109424;28;19928;-66
2021/03/08 07:03:32;;;;;;;;;;;;;;;3.88;100.00;101457.53;5112751;28;19971;-66
2021/03/08 07:06:11;;;;;;;;;;;;;;;4.61;100.00;101460.66;5109496;28;19978;-67
2021/03/08 07:08:37;;;;;;;;;;;;;;;4.36;100.00;101457.25;5108125;28;20046;-67
2021/03/08 07:11:13;;;;;;;;;;;;;;;4.71;100.00;101472.75;5112209;28;19928;-66
2021/03/08 07:13:39;;;;;;;;;;;;;;;5.30;100.00;101478.16;5097197;28;20341;-67
2021/03/08 07:16:06;;;;;;;;;;;;;;;5.23;100.00;101477.56;5106038;28;19931;-67
2021/03/08 07:18:32;;;;;;;;;;;;;;;5.17;100.00;101485.94;5104701;28;20407;-67
2021/03/08 07:21:13;;;;;;;;;;;;;;;5.67;100.00;101479.97;5114190;28;19943;-68
2021/03/08 07:23:39;;;;;;;;;;;;;;;6.14;100.00;101485.81;5114001;28;20400;-67
2021/03/08 07:26:06;;;;;;;;;;;;;;;6.38;100.00;101482.81;5114120;28;19927;-68
2021/03/08 07:28:31;;;;;;;;;;;;;;;6.46;99.96;101489.53;5114478;28;19994;-65
2021/03/08 07:30:57;;;;;;;;;;;;;;;6.85;100.00;101501.91;5114070;28;20393;-66
2021/03/08 07:33:24;;;;;;;;;;;;;;;6.78;94.71;101496.91;5114026;28;19923;-66
2021/03/08 07:35:51;;;;;;;;;;;;;;;6.87;93.58;101504.53;5112720;28;19938;-66
2021/03/08 07:38:29;;;;;;;;;;;;;;;7.03;89.43;101502.72;5114260;28;19924;-66
2021/03/08 07:41:07;;;;;;;;;;;;;;;7.22;88.96;101499.03;5113780;28;19924;-66
2021/03/08 07:43:33;;;;;;;;;;;;;;;7.56;85.59;101505.25;5114139;28;19959;-66
2021/03/08 07:45:59;;;;;;;;;;;;;;;7.82;80.76;101511.88;5113694;28;19938;-65
2021/03/08 07:48:26;;;;;;;;;;;;;;;8.10;78.78;101507.59;5114039;28;19928;-66
2021/03/08 07:50:52;;;;;;;;;;;;;;;8.38;77.92;101506.84;5113795;28;20386;-66
2021/03/08 07:53:25;;;;;;;;;;;;;;;8.21;76.76;101509.66;5113812;28;19982;-66
2021/03/08 07:55:51;;;;;;;;;;;;;;;8.29;74.20;101506.50;5113448;28;19935;-66
2021/03/08 07:58:17;;;;;;;;;;;;;;;8.04;73.97;101505.25;5113484;28;19981;-66
2021/03/08 08:00:43;;;;;;;;;;;;;;;7.78;77.18;101514.88;5112194;28;19923;-66
2021/03/08 08:03:09;;;;;;;;;;;;;;;7.77;75.80;101507.72;5113702;28;20030;-67
2021/03/08 08:05:35;;;;;;;;;;;;;;;8.12;76.09;101508.34;5112360;28;19931;-66
2021/03/08 08:08:01;;;;;;;;;;;;;;;8.33;70.18;101508.94;5113497;28;20004;-67
2021/03/08 08:10:28;;;;;;;;;;;;;;;8.25;70.89;101507.66;5113378;28;20415;-67
2021/03/08 08:12:58;;;;;;;;;;;;;;;8.28;68.93;101511.03;5113328;28;20022;-66
2021/03/08 08:15:25;;;;;;;;;;;;;;;8.40;67.23;101512.16;5113370;28;20027;-67
2021/03/08 08:17:51;;;;;;;;;;;;;;;8.75;68.35;101517.28;5112928;28;19928;-67
2021/03/08 08:20:17;;;;;;;;;;;;;;;8.50;66.67;101502.56;5105344;28;19931;-66
2021/03/08 08:22:50;;;;;;;;;;;;;;;8.59;69.22;101505.66;5112684;28;19928;-67
2021/03/08 08:25:16;;;;;;;;;;;;;;;8.36;65.32;101513.28;5111124;28;19959;-67
2021/03/08 08:27:42;;;;;;;;;;;;;;;8.42;65.01;101514.75;5099149;28;19924;-67
2021/03/08 08:30:09;;;;;;;;;;;;;;;8.83;65.63;101520.44;5092820;28;19955;-67
2021/03/08 08:32:48;;;;;;;;;;;;;;;9.10;62.39;101522.41;5104127;28;19927;-67
2021/03/08 08:35:16;;;;;;;;;;;;;;;9.33;61.97;101520.94;5106464;28;20405;-67
2021/03/08 08:37:41;;;;;;;;;;;;;;;9.40;56.47;101532.25;5112688;28;19924;-67
2021/03/08 08:40:17;;;;;;;;;;;;;;;9.17;55.44;101520.16;5109267;28;19993;-67
2021/03/08 08:42:43;;;;;;;;;;;;;;;9.10;57.32;101532.34;5098603;28;20377;-67
2021/03/08 08:45:24;;;;;;;;;;;;;;;9.10;58.03;101530.50;5094254;28;19943;-68
2021/03/08 08:48:02;;;;;;;;;;;;;;;9.37;52.99;101527.03;5098237;28;19965;-67
2021/03/08 08:50:28;;;;;;;;;;;;;;;9.59;51.58;101531.94;5112389;28;19989;-67
2021/03/08 08:52:55;;;;;;;;;;;;;;;9.53;49.68;101527.78;5095035;28;19928;-67
2021/03/08 08:55:23;;;;;;;;;;;;;;;9.84;50.16;101533.94;5091943;28;19967;-67
2021/03/08 08:58:07;;;;;;;;;;;;;;;10.30;50.50;101534.56;5091864;28;19946;-68
2021/03/08 09:00:33;;;;;;;;;;;;;;;10.54;46.86;101530.25;5091901;28;20026;-67
2021/03/08 09:03:01;;;;;;;;;;;;;;;10.28;45.12;101525.69;5091997;28;19970;-68
2021/03/08 09:05:42;;;;;;;;;;;;;;;9.77;47.36;101526.28;5091728;28;19931;-67
2021/03/08 09:08:23;;;;;;;;;;;;;;;9.42;49.53;101533.03;5091401;28;20019;-67
2021/03/08 09:10:50;;;;;;;;;;;;;;;9.60;47.25;101538.25;5091476;28;19928;-67
2021/03/08 09:13:16;;;;;;;;;;;;;;;10.37;46.71;101533.22;5090662;28;19946;-67
2021/03/08 09:15:42;;;;;;;;;;;;;;;10.90;45.40;101538.66;5091083;28;20030;-67
2021/03/08 09:18:09;;;;;;;;;;;;;;;11.21;43.12;101540.09;5091542;28;19931;-67
2021/03/08 09:20:35;;;;;;;;;;;;;;;11.25;41.82;101535.31;5090442;28;19951;-67
2021/03/08 09:23:02;;;;;;;;;;;;;;;11.71;42.90;101544.69;5091861;28;20015;-67
2021/03/08 09:25:28;;;;;;;;;;;;;;;11.46;39.41;101538.31;5091452;28;19966;-67
2021/03/08 09:28:03;;;;;;;;;;;;;;;11.36;38.24;101538.13;5091469;28;19973;-67
2021/03/08 09:30:29;;;;;;;;;;;;;;;10.55;39.35;101531.97;5091174;28;19963;-67
2021/03/08 09:32:57;;;;;;;;;;;;;;;10.66;41.39;101542.09;5091447;28;19924;-67
2021/03/08 09:35:24;;;;;;;;;;;;;;;9.39;39.85;101538.63;5091434;28;20018;-67
2021/03/08 09:37:51;;;;;;;;;;;;;;;9.76;38.45;101543.56;5091127;28;20440;-67
2021/03/08 09:40:18;;;;;;;;;;;;;;;9.20;41.60;101541.63;5097811;28;20009;-67
2021/03/08 09:42:44;;;;;;;;;;;;;;;10.02;42.14;101552.69;5110313;28;19967;-67
2021/03/08 09:45:18;;;;;;;;;;;;;;;10.87;37.67;101541.59;5111786;28;19976;-67
2021/03/08 09:47:44;;;;;;;;;;;;;;;11.04;38.20;101545.84;5111198;28;19976;-67
2021/03/08 09:50:10;;;;;;;;;;;;;;;10.88;36.80;101538.75;5111405;28;19966;-66
2021/03/08 09:52:37;;;;;;;;;;;;;;;10.49;36.89;101545.06;5111657;28;20385;-67
2021/03/08 09:55:03;;;;;;;;;;;;;;;10.64;38.10;101543.19;5111795;28;20019;-67
2021/03/08 09:57:29;;;;;;;;;;;;;;;11.27;38.00;101540.63;5111057;28;19996;-66
2021/03/08 09:59:55;;;;;;;;;;;;;;;11.93;36.10;101538.53;5111525;28;20026;-66
2021/03/08 10:02:22;;;;;;;;;;;;;;;11.96;33.65;101543.78;5111709;28;19924;-66
2021/03/08 10:04:52;;;;;;;;;;;;;;;12.11;32.93;101536.34;5111167;28;20030;-66
2021/03/08 10:07:18;;;;;;;;;;;;;;;11.65;31.17;101539.69;5110694;28;20333;-66
2021/03/08 10:09:44;;;;;;;;;;;;;;;12.43;33.10;101540.34;5111122;28;19927;-66
2021/03/08 10:12:11;;;;;;;;;;;;;;;12.48;32.14;101543.56;5111442;28;19924;-66
2021/03/08 10:14:36;;;;;;;;;;;;;;;12.58;32.52;101544.59;5111406;28;20011;-67
2021/03/08 10:17:03;;;;;;;;;;;;;;;12.39;30.11;101535.13;5111041;28;19947;-66
2021/03/08 10:19:29;;;;;;;;;;;;;;;12.15;31.11;101540.56;5111490;28;20429;-66
2021/03/08 10:21:55;;;;;;;;;;;;;;;11.96;32.79;101542.91;5111328;28;19928;-66
2021/03/08 10:24:34;;;;;;;;;;;;;;;11.50;30.63;101547.97;5111488;28;19924;-66
2021/03/08 10:27:00;;;;;;;;;;;;;;;11.91;30.30;101536.94;5110626;28;19931;-66
2021/03/08 10:29:26;;;;;;;;;;;;;;;11.69;29.20;101535.78;5114141;28;19928;-67
2021/03/08 10:31:52;;;;;;;;;;;;;;;12.09;28.96;101535.56;5115442;28;20286;-67
2021/03/08 10:34:18;;;;;;;;;;;;;;;12.19;30.00;101530.31;5115295;28;19924;-66
2021/03/08 10:36:45;;;;;;;;;;;;;;;11.13;33.13;101536.16;5108586;28;19930;-66
2021/03/08 10:39:12;;;;;;;;;;;;;;;11.01;31.01;101535.16;5110300;28;19977;-66
2021/03/08 10:41:40;;;;;;;;;;;;;;;11.45;29.94;101541.16;5103150;28;19924;-66
2021/03/08 10:44:07;;;;;;;;;;;;;;;11.65;30.57;101539.69;5094869;28;19959;-66
2021/03/08 10:46:33;;;;;;;;;;;;;;;10.28;27.97;101534.69;5094139;28;20006;-67
2021/03/08 10:49:01;;;;;;;;;;;;;;;11.02;29.19;101540.53;5108919;28;20027;-65
2021/03/08 10:51:27;;;;;;;;;;;;;;;11.11;29.27;101543.56;5093992;28;19924;-66
2021/03/08 10:53:57;;;;;;;;;;;;;;;11.33;28.50;101549.22;5111315;28;19958;-66
2021/03/08 10:56:24;;;;;;;;;;;;;;;11.38;28.34;101540.72;5114791;28;19924;-66
2021/03/08 10:58:49;;;;;;;;;;;;;;;11.34;27.23;101544.63;5114883;28;20286;-66
2021/03/08 11:01:15;;;;;;;;;;;;;;;11.84;27.86;101541.97;5114610;28;19945;-66
2021/03/08 11:03:42;;;;;;;;;;;;;;;11.48;26.66;101541.81;5114552;28;19969;-66
2021/03/08 11:06:08;;;;;;;;;;;;;;;11.30;27.56;101545.84;5114510;28;20015;-66
2021/03/08 11:08:37;;;;;;;;;;;;;;;11.34;27.62;101544.63;5114753;28;19927;-66
2021/03/08 11:11:13;;;;;;;;;;;;;;;11.13;28.49;101545.19;5114774;28;19930;-66
2021/03/08 11:13:39;;;;;;;;;;;;;;;11.06;28.34;101543.88;5114440;28;19930;-66
2021/03/08 11:16:05;;;;;;;;;;;;;;;11.17;26.53;101538.56;5114061;28;19965;-66
2021/03/08 11:18:31;;;;;;;;;;;;;;;11.72;26.05;101544.59;5114520;28;19993;-66
2021/03/08 11:20:57;;;;;;;;;;;;;;;11.28;28.04;101548.66;5114118;28;19931;-66
2021/03/08 11:23:24;;;;;;;;;;;;;;;11.04;29.91;101535.84;5114620;28;20404;-66
2021/03/08 11:25:50;;;;;;;;;;;;;;;11.32;28.70;101535.75;5114044;28;20014;-66
2021/03/08 11:28:17;;;;;;;;;;;;;;;11.51;27.60;101541.56;5114297;28;19931;-66
2021/03/08 11:30:44;;;;;;;;;;;;;;;11.65;29.03;101546.03;5114194;28;20019;-66
2021/03/08 11:33:11;;;;;;;;;;;;;;;11.53;28.21;101542.34;5114014;28;20080;-66
2021/03/08 11:35:37;;;;;;;;;;;;;;;11.90;29.23;101536.03;5113612;28;19935;-66
2021/03/08 11:38:04;;;;;;;;;;;;;;;11.59;27.87;101541.03;5114063;28;19930;-66
2021/03/08 11:40:30;;;;;;;;;;;;;;;11.71;29.51;101540.13;5113371;28;19967;-66
2021/03/08 11:42:56;;;;;;;;;;;;;;;11.76;28.15;101528.03;5114198;28;19976;-66
2021/03/08 11:45:23;;;;;;;;;;;;;;;11.76;26.66;101533.47;5113770;28;20351;-66
2021/03/08 11:47:50;;;;;;;;;;;;;;;11.44;27.49;101537.56;5113792;28;20015;-67
2021/03/08 11:50:15;;;;;;;;;;;;;;;11.20;27.29;101523.91;5113829;28;20065;-66
2021/03/08 11:52:41;;;;;;;;;;;;;;;11.43;29.21;101533.09;5113899;28;19924;-67
2021/03/08 11:55:08;;;;;;;;;;;;;;;11.76;27.15;101523.47;5113612;28;19930;-67
2021/03/08 11:57:33;;;;;;;;;;;;;;;11.58;28.10;101522.09;5113399;28;20006;-67
2021/03/08 11:59:59;;;;;;;;;;;;;;;11.42;26.61;101528.63;5113537;28;20030;-67
2021/03/08 12:02:26;;;;;;;;;;;;;;;11.50;26.63;101530.81;5113884;28;19940;-67
2021/03/08 12:04:52;;;;;;;;;;;;;;;11.41;27.39;101532.38;5113187;28;20000;-66
2021/03/08 12:07:18;;;;;;;;;;;;;;;11.98;26.22;101519.19;5112955;28;19955;-67
2021/03/08 12:09:44;;;;;;;;;;;;;;;12.21;29.12;101520.16;5113647;28;19966;-67
2021/03/08 12:12:10;;;;;;;;;;;;;;;11.39;27.06;101523.44;5113603;28;19932;-67
2021/03/08 12:14:36;;;;;;;;;;;;;;;11.02;27.56;101521.50;5113224;28;20326;-67
2021/03/08 12:17:01;;;;;;;;;;;;;;;11.40;28.29;101525.19;5113124;28;19939;-67
2021/03/08 12:19:28;;;;;;;;;;;;;;;11.83;26.58;101518.44;5113187;28;19934;-67
2021/03/08 12:21:54;;;;;;;;;;;;;;;11.90;26.33;101511.56;5113243;28;19947;-67
2021/03/08 12:24:20;;;;;;;;;;;;;;;11.99;25.04;101507.34;5113125;28;19963;-67
2021/03/08 12:26:45;;;;;;;;;;;;;;;11.71;25.58;101512.06;5113049;28;20343;-67
2021/03/08 12:29:11;;;;;;;;;;;;;;;11.99;24.39;101500.03;5113273;28;19923;-67
2021/03/08 12:31:38;;;;;;;;;;;;;;;12.46;24.73;101501.97;5111968;28;19969;-67
2021/03/08 12:34:04;;;;;;;;;;;;;;;12.49;23.51;101501.72;5112818;28;20342;-67
2021/03/08 12:36:31;;;;;;;;;;;;;;;12.19;23.89;101490.34;5110863;28;19945;-67